»·PEaware :: N707CP KSBA-KOTH

N707CP :: KSBA-KOTH

FLIGHT INFORMATION

Flight Status: Arrived
Operator: Privately registered:
United States
More flights under this callsign
Pilot: Chase W. (8260)
Aircraft: MITSUBISHI MU-2 MARQUISE
(MU2)
More flights by this aircraft type
Origin: KSBA Santa Barbara Mun
United States
Destination: KOTH North Bend Mun
United States
More flights between these airports :: More routes between these airports
Route: +LEDGE
File this flight plan on PilotEdge
Remarks:
Altitude:
(Current/Filed)
28,000ft
Speed:
(Current/Filed)
250kts
Departed: 25-Nov-17 08:32 AM
Arrived: 25-Nov-17 10:50 AM
Distance/Time
Traveled:
577nm/2:18
Distance/Time
To Go:
Arrived

Flight Plot

Page will automatically refresh every two minutes.

Flight plan parsing failed; only flown route is shown


Map Options




Map Legend


Flown Route
Filed Route
Departure Airport
Arrival Airport
Navaid (VOR, NDB)
Fix

Horizontal Profiles

Position Reports

Time Latitude Longitude Heading Altitude Ground
Speed
25-Nov-17 08:15 34.422903 -119.836053 349 17ft 0kts
25-Nov-17 08:16 34.422903 -119.836053 349 17ft 0kts
25-Nov-17 08:17 34.422903 -119.836053 349 17ft 0kts
25-Nov-17 08:18 34.422903 -119.836053 349 17ft 0kts
25-Nov-17 08:19 34.422903 -119.836053 349 17ft 0kts
25-Nov-17 08:20 34.422904 -119.836053 349 17ft 0kts
25-Nov-17 08:21 34.422904 -119.836053 349 17ft 0kts
25-Nov-17 08:22 34.422904 -119.836053 349 17ft 0kts
25-Nov-17 08:23 34.422904 -119.836053 349 17ft 0kts
25-Nov-17 08:24 34.422904 -119.836053 349 17ft 0kts
25-Nov-17 08:25 34.422904 -119.836053 349 17ft 0kts
25-Nov-17 08:26 34.422904 -119.836053 349 17ft 0kts
25-Nov-17 08:27 34.422904 -119.836053 349 17ft 0kts
25-Nov-17 08:28 34.422904 -119.836053 349 17ft 0kts
25-Nov-17 08:29 34.422904 -119.836053 349 17ft 0kts
25-Nov-17 08:30 34.422904 -119.836053 349 17ft 0kts
25-Nov-17 08:31 34.422904 -119.836053 349 17ft 0kts
25-Nov-17 08:32 34.422904 -119.836053 349 17ft 0kts
25-Nov-17 08:33 34.422943 -119.836650 258 17ft 5kts
25-Nov-17 08:34 34.425192 -119.837908 345 17ft 17kts
25-Nov-17 08:35 34.426758 -119.836211 87 17ft 10kts
25-Nov-17 08:36 34.427103 -119.834578 357 17ft 0kts
25-Nov-17 08:37 34.427724 -119.844437 268 17ft 135kts
25-Nov-17 08:38 34.426276 -119.907643 267 1494ft 204kts
25-Nov-17 08:39 34.425973 -119.975787 271 4021ft 204kts
25-Nov-17 08:40 34.426977 -120.045932 269 6076ft 230kts
25-Nov-17 08:41 34.437616 -120.129378 312 6683ft 260kts
25-Nov-17 08:42 34.496517 -120.132402 25 9279ft 218kts
25-Nov-17 08:43 34.552510 -120.120546 307 11011ft 236kts
25-Nov-17 08:44 34.603515 -120.174688 320 12718ft 256kts
25-Nov-17 08:45 34.661644 -120.226718 320 14369ft 267kts
25-Nov-17 08:46 34.720658 -120.279514 320 15986ft 272kts
25-Nov-17 08:47 34.781262 -120.333856 320 17615ft 277kts
25-Nov-17 08:48 34.842901 -120.389187 320 19248ft 280kts
25-Nov-17 08:49 34.904797 -120.444833 319 20869ft 277kts
25-Nov-17 08:50 34.965398 -120.499414 318 22486ft 272kts
25-Nov-17 08:51 35.025353 -120.553555 317 24109ft 269kts
25-Nov-17 08:52 35.084407 -120.607014 316 25722ft 264kts
25-Nov-17 08:53 35.138550 -120.656082 315 27208ft 256kts
25-Nov-17 08:54 35.196074 -120.708513 316 28035ft 277kts
25-Nov-17 08:55 35.259152 -120.769921 302 28034ft 297kts
25-Nov-17 08:56 35.310832 -120.851088 301 28024ft 309kts
25-Nov-17 08:57 35.363731 -120.933932 301 28021ft 311kts
25-Nov-17 08:58 35.416657 -121.016972 301 28037ft 311kts
25-Nov-17 08:59 35.469850 -121.100685 300 28056ft 312kts
25-Nov-17 09:00 35.522961 -121.184487 300 28074ft 313kts
25-Nov-17 09:01 35.576404 -121.269088 300 28076ft 314kts
25-Nov-17 09:02 35.630667 -121.353283 313 28054ft 324kts
25-Nov-17 09:03 35.714941 -121.399545 330 28076ft 337kts
25-Nov-17 09:04 35.801106 -121.444078 330 28076ft 337kts
25-Nov-17 09:05 35.887215 -121.488748 330 28056ft 338kts
25-Nov-17 09:06 35.973535 -121.533629 330 28028ft 338kts
25-Nov-17 09:07 36.059813 -121.578595 330 28018ft 338kts
25-Nov-17 09:08 36.143813 -121.622471 330 28008ft 338kts
25-Nov-17 09:09 36.218704 -121.674249 316 28014ft 327kts
25-Nov-17 09:10 36.292637 -121.738732 317 28012ft 328kts
25-Nov-17 09:11 36.366720 -121.803231 317 28012ft 328kts
25-Nov-17 09:12 36.440258 -121.867404 317 28012ft 328kts
25-Nov-17 09:13 36.512956 -121.930993 317 28013ft 329kts
25-Nov-17 09:14 36.586472 -121.995454 317 28017ft 328kts
25-Nov-17 09:15 36.660782 -122.060766 317 28041ft 329kts
25-Nov-17 09:16 36.735120 -122.126259 317 28042ft 329kts
25-Nov-17 09:17 36.809494 -122.191941 317 28041ft 330kts
25-Nov-17 09:18 36.882907 -122.256932 317 28038ft 330kts
25-Nov-17 09:19 36.956740 -122.322455 317 28024ft 330kts
25-Nov-17 09:20 37.030845 -122.388301 316 28010ft 329kts
25-Nov-17 09:21 37.105765 -122.450001 332 28006ft 340kts
25-Nov-17 09:22 37.186977 -122.483872 333 27996ft 340kts
25-Nov-17 09:23 37.274666 -122.521138 333 27996ft 339kts
25-Nov-17 09:24 37.361738 -122.558248 333 27997ft 339kts
25-Nov-17 09:25 37.449387 -122.595700 333 27998ft 339kts
25-Nov-17 09:26 37.536077 -122.632831 333 27999ft 339kts
25-Nov-17 09:27 37.616642 -122.667418 332 28007ft 339kts
25-Nov-17 09:28 37.703472 -122.704793 332 28007ft 340kts
25-Nov-17 09:29 37.791185 -122.742630 332 28015ft 340kts
25-Nov-17 09:30 37.879687 -122.780907 332 28051ft 340kts
25-Nov-17 09:31 37.965994 -122.818329 332 28073ft 340kts
25-Nov-17 09:32 38.051572 -122.855519 332 28074ft 340kts
25-Nov-17 09:33 38.135121 -122.878177 344 28059ft 349kts
25-Nov-17 09:34 38.219324 -122.893513 344 28043ft 349kts
25-Nov-17 09:35 38.301781 -122.908758 343 28038ft 349kts
25-Nov-17 09:36 38.381728 -122.923578 343 28039ft 349kts
25-Nov-17 09:37 38.458630 -122.937859 343 28040ft 350kts
25-Nov-17 09:38 38.529744 -122.951099 343 28040ft 350kts
25-Nov-17 09:39 38.605328 -122.965193 343 28041ft 351kts
25-Nov-17 09:40 38.682885 -122.979691 343 28042ft 352kts
25-Nov-17 09:41 38.757948 -123.029078 316 28045ft 328kts
25-Nov-17 09:42 38.833478 -123.091824 316 28053ft 330kts
25-Nov-17 09:43 38.910253 -123.155381 315 28062ft 332kts
25-Nov-17 09:44 38.987346 -123.219344 314 28063ft 333kts
25-Nov-17 09:45 39.065453 -123.281650 322 28066ft 344kts
25-Nov-17 09:46 39.148880 -123.329704 323 28049ft 344kts
25-Nov-17 09:47 39.234953 -123.379666 323 28049ft 343kts
25-Nov-17 09:48 39.320626 -123.429569 323 28050ft 343kts
25-Nov-17 09:49 39.406871 -123.479934 323 28052ft 343kts
25-Nov-17 09:50 39.493254 -123.530518 323 28052ft 344kts
25-Nov-17 09:51 39.579817 -123.581344 323 28052ft 344kts
25-Nov-17 09:52 39.665998 -123.632090 323 28054ft 344kts
25-Nov-17 09:53 39.752193 -123.682962 322 28058ft 344kts
25-Nov-17 09:54 39.824286 -123.725629 322 28040ft 345kts
25-Nov-17 09:55 39.925670 -123.785804 322 28012ft 346kts
25-Nov-17 09:56 40.012445 -123.837460 322 28003ft 346kts
25-Nov-17 09:57 40.085052 -123.880796 322 28004ft 346kts
25-Nov-17 09:58 40.183531 -123.939728 322 27990ft 344kts
25-Nov-17 09:59 40.269560 -123.991385 322 27991ft 343kts
25-Nov-17 10:00 40.341104 -124.034438 322 27991ft 344kts
25-Nov-17 10:01 40.440623 -124.094517 322 27992ft 344kts
25-Nov-17 10:02 40.510531 -124.136832 322 27992ft 344kts
25-Nov-17 10:03 40.586044 -124.182637 322 27993ft 344kts
25-Nov-17 10:04 40.652172 -124.222867 322 27993ft 344kts
25-Nov-17 10:05 40.722431 -124.234654 354 27472ft 386kts
25-Nov-17 10:06 40.796483 -124.231736 353 26822ft 394kts
25-Nov-17 10:07 40.874194 -124.229867 353 26140ft 397kts
25-Nov-17 10:08 40.948457 -124.228136 353 25497ft 398kts
25-Nov-17 10:09 41.023016 -124.226371 353 24856ft 398kts
25-Nov-17 10:10 41.088827 -124.224833 353 24295ft 399kts
25-Nov-17 10:11 41.155385 -124.223246 354 23971ft 393kts
25-Nov-17 10:12 41.223540 -124.221647 353 23967ft 384kts
25-Nov-17 10:13 41.294116 -124.219981 353 23971ft 378kts
25-Nov-17 10:14 41.372798 -124.218150 353 23986ft 374kts
25-Nov-17 10:15 41.459900 -124.216060 352 23984ft 377kts
25-Nov-17 10:16 41.546078 -124.214086 352 23985ft 379kts
25-Nov-17 10:17 41.632383 -124.212024 352 23986ft 379kts
25-Nov-17 10:18 41.718644 -124.210008 352 23876ft 374kts
25-Nov-17 10:19 41.797151 -124.208055 352 22581ft 355kts
25-Nov-17 10:20 41.870688 -124.206302 352 21271ft 339kts
25-Nov-17 10:21 41.939250 -124.204689 352 20018ft 329kts
25-Nov-17 10:22 42.004487 -124.203129 353 18804ft 322kts
25-Nov-17 10:23 42.065371 -124.201680 353 17654ft 316kts
25-Nov-17 10:24 42.123228 -124.200294 353 16525ft 312kts
25-Nov-17 10:25 42.176935 -124.199012 354 15433ft 308kts
25-Nov-17 10:26 42.228702 -124.197758 354 14372ft 304kts
25-Nov-17 10:27 42.281905 -124.196765 354 13272ft 301kts
25-Nov-17 10:28 42.327911 -124.196014 354 12313ft 298kts
25-Nov-17 10:29 42.362288 -124.195402 354 11595ft 295kts
25-Nov-17 10:30 42.398349 -124.194686 353 10838ft 289kts
25-Nov-17 10:31 42.451063 -124.193862 352 9693ft 277kts
25-Nov-17 10:32 42.524156 -124.192815 353 8004ft 258kts
25-Nov-17 10:33 42.578498 -124.192015 355 6660ft 244kts
25-Nov-17 10:34 42.625745 -124.191059 356 6202ft 234kts
25-Nov-17 10:35 42.671654 -124.190366 356 6196ft 236kts
25-Nov-17 10:36 42.712189 -124.189595 356 6191ft 218kts
25-Nov-17 10:37 42.744733 -124.189093 356 6193ft 209kts
25-Nov-17 10:38 42.770303 -124.189582 6 6190ft 217kts
25-Nov-17 10:39 42.800270 -124.188520 6 6203ft 243kts
25-Nov-17 10:40 42.853689 -124.187093 2 6193ft 275kts
25-Nov-17 10:41 42.920392 -124.186135 1 6188ft 289kts
25-Nov-17 10:42 42.985475 -124.185154 1 6180ft 274kts
25-Nov-17 10:43 43.050054 -124.184112 1 6100ft 261kts
25-Nov-17 10:44 43.103301 -124.205733 322 5208ft 241kts
25-Nov-17 10:45 43.147503 -124.252152 321 4240ft 211kts
25-Nov-17 10:46 43.185822 -124.292613 321 3267ft 181kts
25-Nov-17 10:47 43.219155 -124.326682 323 2405ft 163kts
25-Nov-17 10:48 43.252405 -124.360951 321 1472ft 162kts
25-Nov-17 10:49 43.288834 -124.393206 331 1146ft 162kts
25-Nov-17 10:50 43.326253 -124.391863 34 1134ft 135kts
25-Nov-17 10:51 43.354553 -124.360981 46 1225ft 130kts
25-Nov-17 10:52 43.383592 -124.333368 45 1319ft 134kts
25-Nov-17 10:53 43.401446 -124.293791 66 576ft 117kts
25-Nov-17 10:54 43.415643 -124.258290 65 24ft 101kts
25-Nov-17 10:55 43.419352 -124.247306 149 20ft 0kts
25-Nov-17 10:56 43.417416 -124.245747 148 21ft 14kts
25-Nov-17 10:57 43.415431 -124.245038 161 21ft 8kts
25-Nov-17 10:58 43.414672 -124.245005 330 21ft 0kts
25-Nov-17 10:59 43.414693 -124.245022 330 21ft 0kts

Navigation Log

Ident Type
Flight plan parsing failed, navigation log unavailable